sensor_id;sensor_type;location;lat;lon;timestamp;P1;durP1;ratioP1;P2;durP2;ratioP2
80322;SDS011;69636;52.372;13.610;2024-02-14T00:00:56;14.38;;;8.45;;
80322;SDS011;69636;52.372;13.610;2024-02-14T00:03:24;12.48;;;9.15;;
80322;SDS011;69636;52.372;13.610;2024-02-14T00:05:54;17.25;;;15.85;;
80322;SDS011;69636;52.372;13.610;2024-02-14T00:08:22;13.30;;;10.02;;
80322;SDS011;69636;52.372;13.610;2024-02-14T00:10:49;13.25;;;11.82;;
80322;SDS011;69636;52.372;13.610;2024-02-14T00:13:18;11.10;;;6.88;;
80322;SDS011;69636;52.372;13.610;2024-02-14T00:15:45;10.05;;;8.85;;
80322;SDS011;69636;52.372;13.610;2024-02-14T00:18:13;10.63;;;7.03;;
80322;SDS011;69636;52.372;13.610;2024-02-14T00:20:41;11.25;;;10.10;;
80322;SDS011;69636;52.372;13.610;2024-02-14T00:23:08;9.07;;;7.63;;
80322;SDS011;69636;52.372;13.610;2024-02-14T00:25:36;10.18;;;7.88;;
80322;SDS011;69636;52.372;13.610;2024-02-14T00:30:34;16.05;;;14.73;;
80322;SDS011;69636;52.372;13.610;2024-02-14T00:33:01;9.52;;;7.40;;
80322;SDS011;69636;52.372;13.610;2024-02-14T00:35:29;8.23;;;6.95;;
80322;SDS011;69636;52.372;13.610;2024-02-14T00:37:57;11.68;;;8.52;;
80322;SDS011;69636;52.372;13.610;2024-02-14T00:40:24;13.27;;;9.00;;
80322;SDS011;69636;52.372;13.610;2024-02-14T00:42:52;11.90;;;10.50;;
80322;SDS011;69636;52.372;13.610;2024-02-14T00:45:19;9.52;;;7.20;;
80322;SDS011;69636;52.372;13.610;2024-02-14T00:47:49;10.25;;;7.13;;
80322;SDS011;69636;52.372;13.610;2024-02-14T00:50:16;11.50;;;9.82;;
80322;SDS011;69636;52.372;13.610;2024-02-14T00:52:44;11.93;;;9.38;;
80322;SDS011;69636;52.372;13.610;2024-02-14T00:55:11;11.43;;;7.15;;
80322;SDS011;69636;52.372;13.610;2024-02-14T00:57:39;10.27;;;8.05;;
80322;SDS011;69636;52.372;13.610;2024-02-14T01:00:07;8.63;;;7.10;;
80322;SDS011;69636;52.372;13.610;2024-02-14T01:02:34;9.18;;;7.30;;
80322;SDS011;69636;52.372;13.610;2024-02-14T01:05:04;9.90;;;8.35;;
80322;SDS011;69636;52.372;13.610;2024-02-14T01:07:32;10.85;;;8.63;;
80322;SDS011;69636;52.372;13.610;2024-02-14T01:10:00;13.43;;;9.32;;
80322;SDS011;69636;52.372;13.610;2024-02-14T01:12:27;10.20;;;9.18;;
80322;SDS011;69636;52.372;13.610;2024-02-14T01:14:55;9.85;;;8.13;;
80322;SDS011;69636;52.372;13.610;2024-02-14T01:17:23;8.40;;;6.30;;
80322;SDS011;69636;52.372;13.610;2024-02-14T01:19:51;10.70;;;7.90;;
80322;SDS011;69636;52.372;13.610;2024-02-14T01:22:20;11.63;;;10.50;;
80322;SDS011;69636;52.372;13.610;2024-02-14T01:24:47;10.63;;;8.75;;
80322;SDS011;69636;52.372;13.610;2024-02-14T01:27:14;10.02;;;8.15;;
80322;SDS011;69636;52.372;13.610;2024-02-14T01:29:42;10.18;;;7.30;;
80322;SDS011;69636;52.372;13.610;2024-02-14T01:32:10;10.93;;;9.27;;
80322;SDS011;69636;52.372;13.610;2024-02-14T01:34:37;9.23;;;6.95;;
80322;SDS011;69636;52.372;13.610;2024-02-14T01:37:05;11.15;;;8.68;;
80322;SDS011;69636;52.372;13.610;2024-02-14T01:39:34;9.95;;;8.25;;
80322;SDS011;69636;52.372;13.610;2024-02-14T01:42:01;8.75;;;7.75;;
80322;SDS011;69636;52.372;13.610;2024-02-14T01:44:29;10.30;;;9.25;;
80322;SDS011;69636;52.372;13.610;2024-02-14T01:46:56;12.50;;;9.43;;
80322;SDS011;69636;52.372;13.610;2024-02-14T01:49:24;10.18;;;7.13;;
80322;SDS011;69636;52.372;13.610;2024-02-14T01:51:52;10.02;;;8.50;;
80322;SDS011;69636;52.372;13.610;2024-02-14T01:54:22;12.55;;;10.30;;
80322;SDS011;69636;52.372;13.610;2024-02-14T01:56:51;10.60;;;8.85;;
80322;SDS011;69636;52.372;13.610;2024-02-14T01:59:19;11.35;;;10.07;;
80322;SDS011;69636;52.372;13.610;2024-02-14T02:01:47;9.77;;;8.80;;
80322;SDS011;69636;52.372;13.610;2024-02-14T02:04:14;10.73;;;8.52;;
80322;SDS011;69636;52.372;13.610;2024-02-14T02:06:42;11.65;;;6.93;;
80322;SDS011;69636;52.372;13.610;2024-02-14T02:09:10;11.73;;;9.02;;
80322;SDS011;69636;52.372;13.610;2024-02-14T02:11:45;11.73;;;9.70;;
80322;SDS011;69636;52.372;13.610;2024-02-14T02:14:14;8.52;;;7.55;;
80322;SDS011;69636;52.372;13.610;2024-02-14T02:16:42;11.88;;;8.88;;
80322;SDS011;69636;52.372;13.610;2024-02-14T02:19:09;10.07;;;7.55;;
80322;SDS011;69636;52.372;13.610;2024-02-14T02:21:37;8.43;;;7.13;;
80322;SDS011;69636;52.372;13.610;2024-02-14T02:24:06;10.43;;;7.82;;
80322;SDS011;69636;52.372;13.610;2024-02-14T02:26:34;9.73;;;7.18;;
80322;SDS011;69636;52.372;13.610;2024-02-14T02:29:02;10.50;;;9.05;;
80322;SDS011;69636;52.372;13.610;2024-02-14T02:31:30;10.52;;;8.73;;
80322;SDS011;69636;52.372;13.610;2024-02-14T02:36:25;9.43;;;7.95;;
80322;SDS011;69636;52.372;13.610;2024-02-14T02:38:52;9.93;;;8.75;;
80322;SDS011;69636;52.372;13.610;2024-02-14T02:41:21;10.70;;;8.55;;
80322;SDS011;69636;52.372;13.610;2024-02-14T02:43:48;12.23;;;11.13;;
80322;SDS011;69636;52.372;13.610;2024-02-14T02:46:16;10.68;;;9.65;;
80322;SDS011;69636;52.372;13.610;2024-02-14T02:48:43;9.68;;;8.15;;
80322;SDS011;69636;52.372;13.610;2024-02-14T02:51:11;9.85;;;7.70;;
80322;SDS011;69636;52.372;13.610;2024-02-14T02:53:38;9.63;;;7.18;;
80322;SDS011;69636;52.372;13.610;2024-02-14T02:56:06;12.68;;;9.52;;
80322;SDS011;69636;52.372;13.610;2024-02-14T02:58:35;9.95;;;6.95;;
80322;SDS011;69636;52.372;13.610;2024-02-14T03:01:07;11.05;;;9.95;;
80322;SDS011;69636;52.372;13.610;2024-02-14T03:03:35;10.98;;;7.65;;
80322;SDS011;69636;52.372;13.610;2024-02-14T03:06:03;11.50;;;8.20;;
80322;SDS011;69636;52.372;13.610;2024-02-14T03:08:32;11.77;;;9.32;;
80322;SDS011;69636;52.372;13.610;2024-02-14T03:11:04;11.57;;;9.32;;
80322;SDS011;69636;52.372;13.610;2024-02-14T03:13:31;11.25;;;8.15;;
80322;SDS011;69636;52.372;13.610;2024-02-14T03:16:01;11.98;;;9.02;;
80322;SDS011;69636;52.372;13.610;2024-02-14T03:18:28;12.60;;;7.93;;
80322;SDS011;69636;52.372;13.610;2024-02-14T03:20:55;12.07;;;10.27;;
80322;SDS011;69636;52.372;13.610;2024-02-14T03:23:23;10.73;;;7.72;;
80322;SDS011;69636;52.372;13.610;2024-02-14T03:25:50;10.50;;;9.25;;
80322;SDS011;69636;52.372;13.610;2024-02-14T03:28:17;11.85;;;8.40;;
80322;SDS011;69636;52.372;13.610;2024-02-14T03:30:45;13.85;;;12.65;;
80322;SDS011;69636;52.372;13.610;2024-02-14T03:33:14;9.93;;;6.97;;
80322;SDS011;69636;52.372;13.610;2024-02-14T03:35:41;9.77;;;7.75;;
80322;SDS011;69636;52.372;13.610;2024-02-14T03:38:09;11.57;;;9.23;;
80322;SDS011;69636;52.372;13.610;2024-02-14T03:40:36;11.00;;;8.45;;
80322;SDS011;69636;52.372;13.610;2024-02-14T03:43:04;14.02;;;12.77;;
80322;SDS011;69636;52.372;13.610;2024-02-14T03:45:31;9.25;;;7.65;;
80322;SDS011;69636;52.372;13.610;2024-02-14T03:47:58;11.73;;;9.68;;
80322;SDS011;69636;52.372;13.610;2024-02-14T03:50:27;12.23;;;10.10;;
80322;SDS011;69636;52.372;13.610;2024-02-14T03:52:55;11.38;;;7.00;;
80322;SDS011;69636;52.372;13.610;2024-02-14T03:55:22;11.25;;;8.30;;
80322;SDS011;69636;52.372;13.610;2024-02-14T03:57:49;11.98;;;10.55;;
80322;SDS011;69636;52.372;13.610;2024-02-14T04:00:17;8.88;;;7.38;;
80322;SDS011;69636;52.372;13.610;2024-02-14T04:02:45;10.13;;;9.18;;
80322;SDS011;69636;52.372;13.610;2024-02-14T04:05:13;10.63;;;8.90;;
80322;SDS011;69636;52.372;13.610;2024-02-14T04:07:41;9.30;;;8.40;;
80322;SDS011;69636;52.372;13.610;2024-02-14T04:10:09;10.00;;;8.65;;
80322;SDS011;69636;52.372;13.610;2024-02-14T04:12:36;10.23;;;5.97;;
80322;SDS011;69636;52.372;13.610;2024-02-14T04:15:04;12.98;;;9.70;;
80322;SDS011;69636;52.372;13.610;2024-02-14T04:17:33;9.98;;;8.93;;
80322;SDS011;69636;52.372;13.610;2024-02-14T04:20:01;10.88;;;6.57;;
80322;SDS011;69636;52.372;13.610;2024-02-14T04:22:29;9.32;;;7.15;;
80322;SDS011;69636;52.372;13.610;2024-02-14T04:24:59;9.30;;;7.72;;
80322;SDS011;69636;52.372;13.610;2024-02-14T04:27:28;9.07;;;8.15;;
80322;SDS011;69636;52.372;13.610;2024-02-14T04:29:55;8.27;;;6.88;;
80322;SDS011;69636;52.372;13.610;2024-02-14T04:32:23;13.18;;;12.05;;
80322;SDS011;69636;52.372;13.610;2024-02-14T04:34:50;9.65;;;7.40;;
80322;SDS011;69636;52.372;13.610;2024-02-14T04:37:18;12.35;;;11.25;;
80322;SDS011;69636;52.372;13.610;2024-02-14T04:39:47;10.65;;;7.50;;
80322;SDS011;69636;52.372;13.610;2024-02-14T04:42:16;7.82;;;6.38;;
80322;SDS011;69636;52.372;13.610;2024-02-14T04:44:44;6.97;;;5.40;;
80322;SDS011;69636;52.372;13.610;2024-02-14T04:47:11;11.05;;;9.50;;
80322;SDS011;69636;52.372;13.610;2024-02-14T04:49:38;10.02;;;5.88;;
80322;SDS011;69636;52.372;13.610;2024-02-14T04:52:06;10.23;;;8.02;;
80322;SDS011;69636;52.372;13.610;2024-02-14T04:54:33;13.90;;;12.60;;
80322;SDS011;69636;52.372;13.610;2024-02-14T04:57:00;10.80;;;8.18;;
80322;SDS011;69636;52.372;13.610;2024-02-14T04:59:31;13.38;;;12.25;;
80322;SDS011;69636;52.372;13.610;2024-02-14T05:01:58;10.63;;;7.07;;
80322;SDS011;69636;52.372;13.610;2024-02-14T05:04:26;10.88;;;9.57;;
80322;SDS011;69636;52.372;13.610;2024-02-14T05:06:53;9.32;;;7.80;;
80322;SDS011;69636;52.372;13.610;2024-02-14T05:09:25;10.88;;;9.90;;
80322;SDS011;69636;52.372;13.610;2024-02-14T05:11:52;12.43;;;11.38;;
80322;SDS011;69636;52.372;13.610;2024-02-14T05:14:20;9.50;;;8.50;;
80322;SDS011;69636;52.372;13.610;2024-02-14T05:16:48;8.82;;;6.65;;
80322;SDS011;69636;52.372;13.610;2024-02-14T05:19:16;9.27;;;8.38;;
80322;SDS011;69636;52.372;13.610;2024-02-14T05:21:44;9.68;;;7.07;;
80322;SDS011;69636;52.372;13.610;2024-02-14T05:24:12;10.65;;;9.63;;
80322;SDS011;69636;52.372;13.610;2024-02-14T05:26:39;8.93;;;6.13;;
80322;SDS011;69636;52.372;13.610;2024-02-14T05:29:06;9.27;;;7.93;;
80322;SDS011;69636;52.372;13.610;2024-02-14T05:31:42;12.70;;;11.57;;
80322;SDS011;69636;52.372;13.610;2024-02-14T05:34:12;9.57;;;8.70;;
80322;SDS011;69636;52.372;13.610;2024-02-14T05:36:40;9.77;;;6.18;;
80322;SDS011;69636;52.372;13.610;2024-02-14T05:39:07;8.73;;;7.20;;
80322;SDS011;69636;52.372;13.610;2024-02-14T05:41:35;11.50;;;9.68;;
80322;SDS011;69636;52.372;13.610;2024-02-14T05:44:02;8.95;;;6.53;;
80322;SDS011;69636;52.372;13.610;2024-02-14T05:46:30;8.00;;;7.20;;
80322;SDS011;69636;52.372;13.610;2024-02-14T05:48:57;8.73;;;7.05;;
80322;SDS011;69636;52.372;13.610;2024-02-14T05:51:26;9.73;;;8.32;;
80322;SDS011;69636;52.372;13.610;2024-02-14T05:53:54;8.90;;;6.07;;
80322;SDS011;69636;52.372;13.610;2024-02-14T05:56:21;7.70;;;5.35;;
80322;SDS011;69636;52.372;13.610;2024-02-14T05:58:48;9.65;;;7.18;;
80322;SDS011;69636;52.372;13.610;2024-02-14T06:01:16;8.23;;;7.40;;
80322;SDS011;69636;52.372;13.610;2024-02-14T06:03:43;9.45;;;7.30;;
80322;SDS011;69636;52.372;13.610;2024-02-14T06:06:11;10.00;;;6.03;;
80322;SDS011;69636;52.372;13.610;2024-02-14T06:08:40;8.20;;;7.38;;
80322;SDS011;69636;52.372;13.610;2024-02-14T06:11:07;9.10;;;6.10;;
80322;SDS011;69636;52.372;13.610;2024-02-14T06:13:34;7.55;;;6.38;;
80322;SDS011;69636;52.372;13.610;2024-02-14T06:16:02;9.27;;;6.38;;
80322;SDS011;69636;52.372;13.610;2024-02-14T06:18:29;9.52;;;8.40;;
80322;SDS011;69636;52.372;13.610;2024-02-14T06:20:57;8.90;;;6.47;;
80322;SDS011;69636;52.372;13.610;2024-02-14T06:23:24;11.27;;;8.02;;
80322;SDS011;69636;52.372;13.610;2024-02-14T06:25:53;10.80;;;5.55;;
80322;SDS011;69636;52.372;13.610;2024-02-14T06:28:21;9.48;;;8.57;;
80322;SDS011;69636;52.372;13.610;2024-02-14T06:30:48;8.75;;;7.85;;
80322;SDS011;69636;52.372;13.610;2024-02-14T06:33:15;8.57;;;6.07;;
80322;SDS011;69636;52.372;13.610;2024-02-14T06:35:43;9.00;;;8.13;;
80322;SDS011;69636;52.372;13.610;2024-02-14T06:38:11;7.95;;;5.70;;
80322;SDS011;69636;52.372;13.610;2024-02-14T06:40:39;10.38;;;6.63;;
80322;SDS011;69636;52.372;13.610;2024-02-14T06:43:08;8.52;;;6.60;;
80322;SDS011;69636;52.372;13.610;2024-02-14T06:45:35;8.07;;;6.78;;
80322;SDS011;69636;52.372;13.610;2024-02-14T06:48:02;7.03;;;5.10;;
80322;SDS011;69636;52.372;13.610;2024-02-14T06:50:30;9.32;;;7.22;;
80322;SDS011;69636;52.372;13.610;2024-02-14T06:52:57;7.28;;;6.57;;
80322;SDS011;69636;52.372;13.610;2024-02-14T06:55:25;6.90;;;5.68;;
80322;SDS011;69636;52.372;13.610;2024-02-14T06:57:52;7.93;;;5.93;;
80322;SDS011;69636;52.372;13.610;2024-02-14T07:00:21;6.72;;;5.03;;
80322;SDS011;69636;52.372;13.610;2024-02-14T07:02:49;7.90;;;6.38;;
80322;SDS011;69636;52.372;13.610;2024-02-14T07:05:16;7.55;;;5.25;;
80322;SDS011;69636;52.372;13.610;2024-02-14T07:07:43;8.65;;;7.15;;
80322;SDS011;69636;52.372;13.610;2024-02-14T07:10:11;8.80;;;7.88;;
80322;SDS011;69636;52.372;13.610;2024-02-14T07:12:39;7.97;;;6.63;;
80322;SDS011;69636;52.372;13.610;2024-02-14T07:15:06;6.65;;;5.63;;
80322;SDS011;69636;52.372;13.610;2024-02-14T07:17:35;7.40;;;5.45;;
80322;SDS011;69636;52.372;13.610;2024-02-14T07:20:03;6.30;;;4.78;;
80322;SDS011;69636;52.372;13.610;2024-02-14T07:22:31;6.78;;;4.65;;
80322;SDS011;69636;52.372;13.610;2024-02-14T07:24:58;8.02;;;4.85;;
80322;SDS011;69636;52.372;13.610;2024-02-14T07:27:26;7.13;;;4.97;;
80322;SDS011;69636;52.372;13.610;2024-02-14T07:29:53;6.70;;;5.88;;
80322;SDS011;69636;52.372;13.610;2024-02-14T07:32:21;9.00;;;8.30;;
80322;SDS011;69636;52.372;13.610;2024-02-14T07:34:50;8.07;;;6.25;;
80322;SDS011;69636;52.372;13.610;2024-02-14T07:37:18;7.68;;;4.97;;
80322;SDS011;69636;52.372;13.610;2024-02-14T07:39:45;8.73;;;7.95;;
80322;SDS011;69636;52.372;13.610;2024-02-14T07:42:13;6.45;;;5.88;;
80322;SDS011;69636;52.372;13.610;2024-02-14T07:44:40;8.30;;;7.43;;
80322;SDS011;69636;52.372;13.610;2024-02-14T07:47:08;8.52;;;7.10;;
80322;SDS011;69636;52.372;13.610;2024-02-14T07:49:35;5.63;;;4.45;;
80322;SDS011;69636;52.372;13.610;2024-02-14T07:52:04;7.82;;;4.70;;
80322;SDS011;69636;52.372;13.610;2024-02-14T07:54:32;6.43;;;5.32;;
80322;SDS011;69636;52.372;13.610;2024-02-14T07:57:00;6.20;;;5.60;;
80322;SDS011;69636;52.372;13.610;2024-02-14T07:59:27;8.38;;;5.47;;
80322;SDS011;69636;52.372;13.610;2024-02-14T08:01:57;7.22;;;4.72;;
80322;SDS011;69636;52.372;13.610;2024-02-14T08:04:25;6.95;;;5.05;;
80322;SDS011;69636;52.372;13.610;2024-02-14T08:06:53;7.10;;;5.43;;
80322;SDS011;69636;52.372;13.610;2024-02-14T08:09:21;7.53;;;6.20;;
80322;SDS011;69636;52.372;13.610;2024-02-14T08:11:49;7.55;;;6.07;;
80322;SDS011;69636;52.372;13.610;2024-02-14T08:14:16;7.25;;;5.20;;
80322;SDS011;69636;52.372;13.610;2024-02-14T08:16:43;7.80;;;7.03;;
80322;SDS011;69636;52.372;13.610;2024-02-14T08:19:11;8.80;;;7.95;;
80322;SDS011;69636;52.372;13.610;2024-02-14T08:21:38;10.18;;;4.57;;
80322;SDS011;69636;52.372;13.610;2024-02-14T08:24:06;7.57;;;5.63;;
80322;SDS011;69636;52.372;13.610;2024-02-14T08:26:34;5.90;;;4.00;;
80322;SDS011;69636;52.372;13.610;2024-02-14T08:29:02;6.30;;;4.75;;
80322;SDS011;69636;52.372;13.610;2024-02-14T08:31:29;6.93;;;4.30;;
80322;SDS011;69636;52.372;13.610;2024-02-14T08:33:57;6.63;;;5.00;;
80322;SDS011;69636;52.372;13.610;2024-02-14T08:36:25;8.07;;;7.38;;
80322;SDS011;69636;52.372;13.610;2024-02-14T08:38:52;4.97;;;3.72;;
80322;SDS011;69636;52.372;13.610;2024-02-14T08:41:19;5.32;;;3.58;;
80322;SDS011;69636;52.372;13.610;2024-02-14T08:43:48;6.22;;;5.63;;
80322;SDS011;69636;52.372;13.610;2024-02-14T08:46:17;6.35;;;5.40;;
80322;SDS011;69636;52.372;13.610;2024-02-14T08:48:44;7.35;;;6.10;;
80322;SDS011;69636;52.372;13.610;2024-02-14T08:51:12;5.18;;;3.80;;
80322;SDS011;69636;52.372;13.610;2024-02-14T08:53:40;5.93;;;3.55;;
80322;SDS011;69636;52.372;13.610;2024-02-14T08:56:07;6.97;;;5.95;;
80322;SDS011;69636;52.372;13.610;2024-02-14T08:58:35;6.35;;;5.13;;
80322;SDS011;69636;52.372;13.610;2024-02-14T09:01:04;6.13;;;4.03;;
80322;SDS011;69636;52.372;13.610;2024-02-14T09:03:41;5.57;;;4.22;;
80322;SDS011;69636;52.372;13.610;2024-02-14T09:06:08;5.85;;;4.45;;
80322;SDS011;69636;52.372;13.610;2024-02-14T09:08:36;6.75;;;5.32;;
80322;SDS011;69636;52.372;13.610;2024-02-14T09:11:03;5.90;;;4.22;;
80322;SDS011;69636;52.372;13.610;2024-02-14T09:13:31;6.88;;;4.20;;
80322;SDS011;69636;52.372;13.610;2024-02-14T09:15:58;5.75;;;3.83;;
80322;SDS011;69636;52.372;13.610;2024-02-14T09:18:27;6.43;;;5.80;;
80322;SDS011;69636;52.372;13.610;2024-02-14T09:20:54;6.00;;;5.35;;
80322;SDS011;69636;52.372;13.610;2024-02-14T09:23:22;7.80;;;7.10;;
80322;SDS011;69636;52.372;13.610;2024-02-14T09:25:49;6.68;;;3.60;;
80322;SDS011;69636;52.372;13.610;2024-02-14T09:28:16;9.07;;;3.65;;
80322;SDS011;69636;52.372;13.610;2024-02-14T09:30:44;6.68;;;4.45;;
80322;SDS011;69636;52.372;13.610;2024-02-14T09:33:11;5.95;;;5.15;;
80322;SDS011;69636;52.372;13.610;2024-02-14T09:35:40;6.20;;;5.30;;
80322;SDS011;69636;52.372;13.610;2024-02-14T09:38:07;6.20;;;3.72;;
80322;SDS011;69636;52.372;13.610;2024-02-14T09:40:35;7.50;;;4.38;;
80322;SDS011;69636;52.372;13.610;2024-02-14T09:43:03;5.38;;;3.70;;
80322;SDS011;69636;52.372;13.610;2024-02-14T09:45:32;7.38;;;3.60;;
80322;SDS011;69636;52.372;13.610;2024-02-14T09:48:00;6.28;;;3.53;;
80322;SDS011;69636;52.372;13.610;2024-02-14T09:50:28;5.45;;;3.17;;
80322;SDS011;69636;52.372;13.610;2024-02-14T09:52:59;5.05;;;3.53;;
80322;SDS011;69636;52.372;13.610;2024-02-14T09:55:27;8.52;;;7.75;;
80322;SDS011;69636;52.372;13.610;2024-02-14T09:57:54;4.63;;;3.83;;
80322;SDS011;69636;52.372;13.610;2024-02-14T10:00:23;5.65;;;5.15;;
80322;SDS011;69636;52.372;13.610;2024-02-14T10:02:50;5.55;;;4.55;;
80322;SDS011;69636;52.372;13.610;2024-02-14T10:05:18;6.80;;;4.95;;
80322;SDS011;69636;52.372;13.610;2024-02-14T10:07:46;6.70;;;4.45;;
80322;SDS011;69636;52.372;13.610;2024-02-14T10:10:14;5.50;;;3.42;;
80322;SDS011;69636;52.372;13.610;2024-02-14T10:12:42;5.07;;;4.63;;
80322;SDS011;69636;52.372;13.610;2024-02-14T10:15:09;6.30;;;3.40;;
80322;SDS011;69636;52.372;13.610;2024-02-14T10:17:38;5.35;;;4.13;;
80322;SDS011;69636;52.372;13.610;2024-02-14T10:20:06;5.22;;;3.40;;
80322;SDS011;69636;52.372;13.610;2024-02-14T10:22:34;6.05;;;4.45;;
80322;SDS011;69636;52.372;13.610;2024-02-14T10:25:02;4.18;;;3.42;;
80322;SDS011;69636;52.372;13.610;2024-02-14T10:27:32;4.57;;;3.08;;
80322;SDS011;69636;52.372;13.610;2024-02-14T10:29:59;4.72;;;3.03;;
80322;SDS011;69636;52.372;13.610;2024-02-14T10:32:27;5.25;;;4.75;;
80322;SDS011;69636;52.372;13.610;2024-02-14T10:34:54;5.97;;;4.13;;
80322;SDS011;69636;52.372;13.610;2024-02-14T10:37:22;9.23;;;4.50;;
80322;SDS011;69636;52.372;13.610;2024-02-14T10:39:51;6.78;;;4.63;;
80322;SDS011;69636;52.372;13.610;2024-02-14T10:42:20;5.22;;;3.22;;
80322;SDS011;69636;52.372;13.610;2024-02-14T10:44:49;5.78;;;4.78;;
80322;SDS011;69636;52.372;13.610;2024-02-14T10:47:18;5.05;;;3.50;;
80322;SDS011;69636;52.372;13.610;2024-02-14T10:49:47;5.60;;;4.97;;
80322;SDS011;69636;52.372;13.610;2024-02-14T10:52:16;6.20;;;4.28;;
80322;SDS011;69636;52.372;13.610;2024-02-14T10:54:46;5.65;;;3.25;;
80322;SDS011;69636;52.372;13.610;2024-02-14T10:57:19;5.57;;;3.75;;
80322;SDS011;69636;52.372;13.610;2024-02-14T10:59:49;5.28;;;3.20;;
80322;SDS011;69636;52.372;13.610;2024-02-14T11:02:18;5.57;;;5.05;;
80322;SDS011;69636;52.372;13.610;2024-02-14T11:04:49;4.95;;;3.38;;
80322;SDS011;69636;52.372;13.610;2024-02-14T11:07:17;5.20;;;3.63;;
80322;SDS011;69636;52.372;13.610;2024-02-14T11:09:44;7.57;;;4.57;;
80322;SDS011;69636;52.372;13.610;2024-02-14T11:12:11;5.70;;;4.47;;
80322;SDS011;69636;52.372;13.610;2024-02-14T11:14:41;6.20;;;3.78;;
80322;SDS011;69636;52.372;13.610;2024-02-14T11:17:11;6.35;;;3.10;;
80322;SDS011;69636;52.372;13.610;2024-02-14T11:19:39;4.85;;;4.43;;
80322;SDS011;69636;52.372;13.610;2024-02-14T11:22:10;3.95;;;2.67;;
80322;SDS011;69636;52.372;13.610;2024-02-14T11:24:39;8.68;;;4.00;;
80322;SDS011;69636;52.372;13.610;2024-02-14T11:27:09;6.70;;;4.10;;
80322;SDS011;69636;52.372;13.610;2024-02-14T11:29:52;5.05;;;3.75;;
80322;SDS011;69636;52.372;13.610;2024-02-14T11:32:21;4.60;;;3.67;;
80322;SDS011;69636;52.372;13.610;2024-02-14T11:34:53;7.20;;;2.90;;
80322;SDS011;69636;52.372;13.610;2024-02-14T11:37:20;4.72;;;3.83;;
80322;SDS011;69636;52.372;13.610;2024-02-14T11:39:53;4.00;;;3.20;;
80322;SDS011;69636;52.372;13.610;2024-02-14T11:42:21;5.53;;;3.05;;
80322;SDS011;69636;52.372;13.610;2024-02-14T11:44:51;6.13;;;3.83;;
80322;SDS011;69636;52.372;13.610;2024-02-14T11:47:19;7.63;;;7.03;;
80322;SDS011;69636;52.372;13.610;2024-02-14T11:49:48;7.10;;;4.63;;
80322;SDS011;69636;52.372;13.610;2024-02-14T11:52:15;5.57;;;4.57;;
80322;SDS011;69636;52.372;13.610;2024-02-14T11:54:45;4.75;;;3.85;;
80322;SDS011;69636;52.372;13.610;2024-02-14T11:57:16;4.70;;;3.17;;
80322;SDS011;69636;52.372;13.610;2024-02-14T11:59:44;6.47;;;4.50;;
80322;SDS011;69636;52.372;13.610;2024-02-14T12:02:11;6.03;;;5.22;;
80322;SDS011;69636;52.372;13.610;2024-02-14T12:04:38;5.40;;;3.83;;
80322;SDS011;69636;52.372;13.610;2024-02-14T12:07:07;4.30;;;3.45;;
80322;SDS011;69636;52.372;13.610;2024-02-14T12:09:35;6.22;;;4.40;;
80322;SDS011;69636;52.372;13.610;2024-02-14T12:12:04;6.97;;;4.60;;
80322;SDS011;69636;52.372;13.610;2024-02-14T12:14:32;6.10;;;3.53;;
80322;SDS011;69636;52.372;13.610;2024-02-14T12:16:59;5.05;;;3.33;;
80322;SDS011;69636;52.372;13.610;2024-02-14T12:19:27;6.88;;;4.93;;
80322;SDS011;69636;52.372;13.610;2024-02-14T12:21:58;5.47;;;3.80;;
80322;SDS011;69636;52.372;13.610;2024-02-14T12:24:28;6.03;;;3.75;;
80322;SDS011;69636;52.372;13.610;2024-02-14T12:26:55;5.95;;;3.33;;
80322;SDS011;69636;52.372;13.610;2024-02-14T12:29:23;5.18;;;4.13;;
80322;SDS011;69636;52.372;13.610;2024-02-14T12:31:51;6.85;;;5.53;;
80322;SDS011;69636;52.372;13.610;2024-02-14T12:34:18;7.13;;;6.43;;
80322;SDS011;69636;52.372;13.610;2024-02-14T12:36:51;6.68;;;4.10;;
80322;SDS011;69636;52.372;13.610;2024-02-14T12:39:18;6.03;;;3.97;;
80322;SDS011;69636;52.372;13.610;2024-02-14T12:41:47;5.25;;;3.28;;
80322;SDS011;69636;52.372;13.610;2024-02-14T12:44:14;6.75;;;5.80;;
80322;SDS011;69636;52.372;13.610;2024-02-14T12:46:42;6.00;;;3.88;;
80322;SDS011;69636;52.372;13.610;2024-02-14T12:49:09;7.70;;;6.97;;
80322;SDS011;69636;52.372;13.610;2024-02-14T12:51:37;6.22;;;4.10;;
80322;SDS011;69636;52.372;13.610;2024-02-14T12:54:04;5.90;;;4.28;;
80322;SDS011;69636;52.372;13.610;2024-02-14T12:56:32;6.22;;;4.53;;
80322;SDS011;69636;52.372;13.610;2024-02-14T12:59:01;7.30;;;4.68;;
80322;SDS011;69636;52.372;13.610;2024-02-14T13:01:28;8.20;;;4.80;;
80322;SDS011;69636;52.372;13.610;2024-02-14T13:03:55;7.15;;;4.43;;
80322;SDS011;69636;52.372;13.610;2024-02-14T13:06:23;7.10;;;5.05;;
80322;SDS011;69636;52.372;13.610;2024-02-14T13:08:50;8.20;;;5.13;;
80322;SDS011;69636;52.372;13.610;2024-02-14T13:11:18;5.68;;;4.70;;
80322;SDS011;69636;52.372;13.610;2024-02-14T13:13:45;9.35;;;5.22;;
80322;SDS011;69636;52.372;13.610;2024-02-14T13:16:14;7.45;;;6.40;;
80322;SDS011;69636;52.372;13.610;2024-02-14T13:18:41;8.45;;;4.80;;
80322;SDS011;69636;52.372;13.610;2024-02-14T13:21:09;7.85;;;6.82;;
80322;SDS011;69636;52.372;13.610;2024-02-14T13:23:36;5.95;;;4.90;;
80322;SDS011;69636;52.372;13.610;2024-02-14T13:26:04;7.20;;;5.60;;
80322;SDS011;69636;52.372;13.610;2024-02-14T13:28:31;7.20;;;5.63;;
80322;SDS011;69636;52.372;13.610;2024-02-14T13:30:58;6.35;;;4.15;;
80322;SDS011;69636;52.372;13.610;2024-02-14T13:33:27;7.03;;;6.35;;
80322;SDS011;69636;52.372;13.610;2024-02-14T13:35:55;10.57;;;8.07;;
80322;SDS011;69636;52.372;13.610;2024-02-14T13:38:22;6.55;;;5.53;;
80322;SDS011;69636;52.372;13.610;2024-02-14T13:40:49;8.07;;;6.85;;
80322;SDS011;69636;52.372;13.610;2024-02-14T13:43:17;8.15;;;5.85;;
80322;SDS011;69636;52.372;13.610;2024-02-14T13:45:45;6.53;;;5.82;;
80322;SDS011;69636;52.372;13.610;2024-02-14T13:48:13;7.50;;;4.47;;
80322;SDS011;69636;52.372;13.610;2024-02-14T13:50:42;7.55;;;4.47;;
80322;SDS011;69636;52.372;13.610;2024-02-14T13:53:10;6.47;;;5.50;;
80322;SDS011;69636;52.372;13.610;2024-02-14T13:55:37;6.95;;;6.25;;
80322;SDS011;69636;52.372;13.610;2024-02-14T13:58:05;8.50;;;5.95;;
80322;SDS011;69636;52.372;13.610;2024-02-14T14:00:32;7.70;;;5.50;;
80322;SDS011;69636;52.372;13.610;2024-02-14T14:02:59;7.20;;;5.88;;
80322;SDS011;69636;52.372;13.610;2024-02-14T14:05:27;5.93;;;5.00;;
80322;SDS011;69636;52.372;13.610;2024-02-14T14:07:56;6.72;;;4.82;;
80322;SDS011;69636;52.372;13.610;2024-02-14T14:10:25;10.82;;;9.95;;
80322;SDS011;69636;52.372;13.610;2024-02-14T14:12:53;7.28;;;5.32;;
80322;SDS011;69636;52.372;13.610;2024-02-14T14:15:21;8.23;;;5.30;;
80322;SDS011;69636;52.372;13.610;2024-02-14T14:17:49;7.95;;;4.85;;
80322;SDS011;69636;52.372;13.610;2024-02-14T14:20:16;6.97;;;5.97;;
80322;SDS011;69636;52.372;13.610;2024-02-14T14:22:44;7.32;;;5.80;;
80322;SDS011;69636;52.372;13.610;2024-02-14T14:25:12;8.02;;;6.13;;
80322;SDS011;69636;52.372;13.610;2024-02-14T14:27:40;8.43;;;6.70;;
80322;SDS011;69636;52.372;13.610;2024-02-14T14:30:07;7.90;;;4.95;;
80322;SDS011;69636;52.372;13.610;2024-02-14T14:32:35;8.52;;;6.35;;
80322;SDS011;69636;52.372;13.610;2024-02-14T14:35:04;7.63;;;6.85;;
80322;SDS011;69636;52.372;13.610;2024-02-14T14:37:31;8.35;;;6.75;;
80322;SDS011;69636;52.372;13.610;2024-02-14T14:39:58;6.57;;;5.47;;